Time;durP1;ratioP1;P1;durP2;ratioP2;P2;SDS_P1;SDS_P2;PMS_P1;PMS_P2;Temp;Humidity;BMP_temperature;BMP_pressure;BME280_temperature;BME280_humidity;BME280_pressure;Samples;Min_cycle;Max_cycle;Signal;HPM_P1;HPM_P2
2023/07/02 00:00:59;;;;;;;3.67;3.37;;;24.20;62.50;;;;;;5061457;28;20203;-48
2023/07/02 00:03:24;;;;;;;3.97;3.10;;;24.20;61.80;;;;;;5069469;28;20480;-47
2023/07/02 00:05:51;;;;;;;9.73;3.77;;;24.10;60.70;;;;;;5059794;28;21417;-50
2023/07/02 00:08:16;;;;;;;4.57;2.93;;;24.20;60.50;;;;;;5060017;28;20287;-48
2023/07/02 00:10:43;;;;;;;5.43;2.73;;;24.30;60.30;;;;;;5060135;28;20496;-49
2023/07/02 00:13:08;;;;;;;3.60;3.30;;;24.30;60.10;;;;;;5058416;28;20263;-48
2023/07/02 00:15:34;;;;;;;3.70;3.43;;;24.30;59.90;;;;;;5051348;28;20493;-52
2023/07/02 00:18:00;;;;;;;4.63;3.00;;;24.30;59.90;;;;;;5070748;28;20191;-47
2023/07/02 00:20:25;;;;;;;3.60;3.30;;;24.30;59.90;;;;;;5066533;28;20689;-48
2023/07/02 00:22:51;;;;;;;3.40;3.10;;;24.30;59.90;;;;;;5068308;28;20248;-50
2023/07/02 00:25:17;;;;;;;4.63;3.40;;;24.20;59.90;;;;;;5060128;28;20274;-48
2023/07/02 00:27:42;;;;;;;7.90;3.60;;;24.20;60.10;;;;;;5073346;28;20238;-51
2023/07/02 00:30:08;;;;;;;3.63;3.33;;;24.20;60.10;;;;;;5068037;28;20265;-49
2023/07/02 00:32:34;;;;;;;3.70;3.40;;;24.30;60.10;;;;;;5060773;28;20197;-48
2023/07/02 00:34:59;;;;;;;3.63;3.33;;;24.30;59.90;;;;;;5061083;28;20516;-47
2023/07/02 00:37:25;;;;;;;3.80;3.37;;;24.20;59.70;;;;;;5063454;28;20681;-48
2023/07/02 00:39:52;;;;;;;3.30;3.00;;;24.10;59.70;;;;;;5064945;28;20655;-50
2023/07/02 00:42:17;;;;;;;3.20;3.00;;;24.10;59.70;;;;;;5058193;28;20187;-49
2023/07/02 00:44:44;;;;;;;3.20;2.77;;;24.10;59.70;;;;;;5052832;28;20456;-48
2023/07/02 00:47:11;;;;;;;3.50;3.20;;;24.10;60.40;;;;;;5063274;28;20195;-49
2023/07/02 00:49:37;;;;;;;3.10;2.90;;;24.00;59.70;;;;;;5068666;28;20461;-49
2023/07/02 00:52:02;;;;;;;4.20;3.80;;;23.90;59.90;;;;;;5066314;28;21694;-48
2023/07/02 00:54:29;;;;;;;5.30;3.57;;;23.90;60.20;;;;;;5063446;28;20192;-51
2023/07/02 00:56:55;;;;;;;4.27;3.87;;;23.90;60.30;;;;;;5060962;28;20232;-48
2023/07/02 00:59:21;;;;;;;4.50;3.73;;;23.90;60.30;;;;;;5065098;28;20962;-51
2023/07/02 01:01:49;;;;;;;3.90;3.50;;;23.90;60.40;;;;;;5073902;28;20722;-48
2023/07/02 01:04:18;;;;;;;5.43;3.07;;;23.90;60.50;;;;;;5067909;28;20188;-48
2023/07/02 01:06:44;;;;;;;3.80;3.50;;;24.00;60.50;;;;;;5063030;28;20451;-49
2023/07/02 01:09:10;;;;;;;3.80;3.47;;;24.00;60.40;;;;;;5061762;28;20988;-47
2023/07/02 01:11:44;;;;;;;4.30;3.20;;;24.00;60.30;;;;;;5062406;28;20595;-50
2023/07/02 01:14:38;;;;;;;3.23;2.90;;;24.00;60.30;;;;;;5073439;28;20988;-49
2023/07/02 01:17:06;;;;;;;4.20;3.07;;;24.00;60.30;;;;;;5060843;28;20488;-48
2023/07/02 01:19:51;;;;;;;3.00;2.73;;;23.80;60.30;;;;;;5066377;28;20812;-51
2023/07/02 01:22:22;;;;;;;3.90;3.60;;;23.80;60.50;;;;;;5057116;28;20438;-49
2023/07/02 01:24:48;;;;;;;3.80;3.50;;;23.80;60.60;;;;;;5064038;28;20445;-47
2023/07/02 01:27:14;;;;;;;4.50;3.13;;;23.70;60.70;;;;;;5071184;28;22147;-49
2023/07/02 01:29:41;;;;;;;3.20;2.90;;;23.60;60.40;;;;;;5079990;28;20540;-48
2023/07/02 01:32:08;;;;;;;3.50;3.20;;;23.60;60.70;;;;;;5070848;28;20445;-47
2023/07/02 01:34:34;;;;;;;5.60;3.63;;;23.60;60.90;;;;;;5078438;28;20448;-47
2023/07/02 01:36:59;;;;;;;3.40;3.10;;;23.70;60.90;;;;;;5076910;28;20477;-48
2023/07/02 01:39:25;;;;;;;3.83;3.03;;;23.60;60.70;;;;;;5083643;28;21024;-47
2023/07/02 01:41:52;;;;;;;7.20;3.33;;;23.60;60.90;;;;;;5068805;28;20930;-50
2023/07/02 01:44:19;;;;;;;3.20;2.90;;;23.60;60.80;;;;;;5059022;28;20655;-49
2023/07/02 01:46:48;;;;;;;3.23;2.97;;;23.50;60.80;;;;;;5058089;28;20426;-48
2023/07/02 01:49:18;;;;;;;4.07;3.40;;;23.30;61.10;;;;;;5053679;28;20456;-48
2023/07/02 01:51:54;;;;;;;3.73;3.43;;;23.20;61.50;;;;;;5058664;28;20937;-49
2023/07/02 01:54:21;;;;;;;3.70;3.40;;;23.30;61.30;;;;;;5056105;28;20489;-50
2023/07/02 01:56:47;;;;;;;3.73;2.90;;;23.30;61.30;;;;;;5055008;28;20617;-47
2023/07/02 01:59:13;;;;;;;3.23;2.93;;;23.20;61.60;;;;;;5055478;28;20576;-47
2023/07/02 02:01:40;;;;;;;8.30;3.30;;;23.30;61.40;;;;;;5060910;28;20651;-47
2023/07/02 02:04:10;;;;;;;5.20;3.27;;;23.30;61.30;;;;;;5063653;28;20278;-48
2023/07/02 02:06:37;;;;;;;3.20;2.87;;;23.30;61.30;;;;;;5058351;28;20442;-48
2023/07/02 02:09:04;;;;;;;3.20;2.90;;;23.40;61.60;;;;;;5064412;28;20478;-49
2023/07/02 02:11:33;;;;;;;2.87;2.67;;;23.40;61.40;;;;;;5068332;28;20971;-49
2023/07/02 02:14:02;;;;;;;7.33;3.60;;;23.40;61.10;;;;;;5078714;28;20449;-52
2023/07/02 02:16:28;;;;;;;3.70;3.10;;;23.40;61.00;;;;;;5060443;28;20478;-48
2023/07/02 02:18:54;;;;;;;3.10;2.80;;;23.40;61.10;;;;;;5055778;28;20448;-47
2023/07/02 02:21:20;;;;;;;3.70;3.00;;;23.40;61.10;;;;;;5070820;28;20203;-49
2023/07/02 02:23:46;;;;;;;8.10;3.70;;;23.40;61.10;;;;;;5062487;28;20437;-47
2023/07/02 02:26:12;;;;;;;3.30;2.93;;;23.30;61.70;;;;;;5070204;28;20453;-47
2023/07/02 02:28:37;;;;;;;3.00;2.70;;;23.40;61.00;;;;;;5067677;28;20348;-47
2023/07/02 02:31:03;;;;;;;4.27;2.70;;;23.30;60.60;;;;;;5060382;28;20243;-47
2023/07/02 02:33:29;;;;;;;3.40;2.90;;;23.30;60.60;;;;;;5061810;28;20196;-51
2023/07/02 02:35:54;;;;;;;2.50;2.30;;;23.30;60.30;;;;;;5063362;28;20639;-47
2023/07/02 02:38:20;;;;;;;4.00;2.63;;;23.20;60.10;;;;;;5073097;28;20223;-50
2023/07/02 02:40:46;;;;;;;3.53;3.10;;;23.30;60.30;;;;;;5063301;28;20191;-47
2023/07/02 02:43:11;;;;;;;8.43;3.40;;;23.30;60.30;;;;;;5060628;28;20193;-47
2023/07/02 02:45:38;;;;;;;3.50;3.20;;;23.40;60.30;;;;;;5073851;28;20187;-51
2023/07/02 02:48:03;;;;;;;3.67;2.77;;;23.40;60.20;;;;;;5057444;28;20269;-51
2023/07/02 02:50:29;;;;;;;3.13;2.93;;;23.50;60.20;;;;;;5060594;28;20435;-48
2023/07/02 02:52:54;;;;;;;3.73;2.60;;;23.60;60.10;;;;;;5063691;28;20355;-47
2023/07/02 02:55:20;;;;;;;3.03;2.83;;;23.70;60.00;;;;;;5067924;28;20243;-51
2023/07/02 02:57:46;;;;;;;3.67;2.83;;;23.70;59.90;;;;;;5052499;28;20197;-50
2023/07/02 03:00:11;;;;;;;4.50;2.70;;;23.80;59.90;;;;;;5057977;28;20225;-47
2023/07/02 03:02:38;;;;;;;3.70;2.97;;;23.80;59.70;;;;;;5067883;28;20202;-47
2023/07/02 03:05:05;;;;;;;5.00;3.13;;;23.90;59.60;;;;;;5066630;28;20200;-49
2023/07/02 03:07:32;;;;;;;5.27;2.70;;;23.90;59.30;;;;;;5064456;28;20563;-49
2023/07/02 03:09:57;;;;;;;3.77;3.37;;;24.00;59.10;;;;;;5059928;28;20492;-47
2023/07/02 03:12:23;;;;;;;5.27;2.83;;;24.10;58.90;;;;;;5072644;28;20828;-49
2023/07/02 03:14:52;;;;;;;4.13;3.43;;;24.10;58.70;;;;;;5061060;28;20230;-51
2023/07/02 03:17:19;;;;;;;2.60;2.40;;;24.20;58.40;;;;;;5062675;28;20231;-47
2023/07/02 03:19:45;;;;;;;5.50;2.63;;;24.20;58.10;;;;;;5067185;28;20800;-48
2023/07/02 03:22:10;;;;;;;4.00;3.30;;;24.30;58.00;;;;;;5058002;28;20442;-48
2023/07/02 03:24:36;;;;;;;3.20;2.90;;;24.20;58.40;;;;;;5074048;28;20192;-47
2023/07/02 03:27:01;;;;;;;6.40;2.87;;;24.20;58.00;;;;;;5081614;28;20552;-47
2023/07/02 03:29:27;;;;;;;3.70;3.20;;;24.20;58.00;;;;;;5067795;28;20222;-48
2023/07/02 03:31:52;;;;;;;4.17;2.87;;;24.10;58.10;;;;;;5066917;28;20203;-53
2023/07/02 03:34:18;;;;;;;3.00;2.80;;;24.00;58.40;;;;;;5063407;28;20275;-47
2023/07/02 03:36:44;;;;;;;3.90;2.73;;;23.90;58.40;;;;;;5062984;28;20228;-47
2023/07/02 03:39:10;;;;;;;5.17;3.33;;;23.60;58.80;;;;;;5060299;28;20200;-48
2023/07/02 03:41:35;;;;;;;4.70;3.70;;;23.50;59.50;;;;;;5057761;28;20447;-52
2023/07/02 03:44:01;;;;;;;4.13;3.43;;;23.10;61.80;;;;;;5062710;28;20221;-48
2023/07/02 03:46:27;;;;;;;8.53;3.03;;;22.80;62.50;;;;;;5066188;28;20196;-47
2023/07/02 03:48:52;;;;;;;5.13;4.10;;;22.70;63.20;;;;;;5055169;28;20196;-48
2023/07/02 03:51:18;;;;;;;7.23;4.23;;;22.60;63.80;;;;;;5057158;28;20189;-48
2023/07/02 03:53:43;;;;;;;5.23;4.20;;;22.40;64.10;;;;;;5059235;28;20199;-52
2023/07/02 03:56:09;;;;;;;9.23;4.40;;;22.40;64.60;;;;;;5065824;28;20599;-48
2023/07/02 03:58:35;;;;;;;5.70;4.20;;;22.50;64.40;;;;;;5059297;28;20249;-47
2023/07/02 04:01:01;;;;;;;7.43;4.20;;;22.60;64.10;;;;;;5058061;28;20197;-48
2023/07/02 04:03:26;;;;;;;5.53;3.63;;;22.80;63.80;;;;;;5055925;28;20193;-48
2023/07/02 04:05:52;;;;;;;4.70;4.00;;;22.90;63.20;;;;;;5060811;28;20450;-47
2023/07/02 04:08:20;;;;;;;6.07;3.90;;;23.10;62.40;;;;;;5068200;28;20204;-48
2023/07/02 04:10:46;;;;;;;4.93;3.53;;;23.20;62.00;;;;;;5082960;28;20199;-48
2023/07/02 04:13:12;;;;;;;4.73;3.90;;;23.30;61.50;;;;;;5063723;28;20505;-48
2023/07/02 04:15:37;;;;;;;4.53;3.80;;;23.40;61.00;;;;;;5061107;28;20219;-47
2023/07/02 04:18:03;;;;;;;4.20;3.80;;;23.50;60.60;;;;;;5067897;28;20196;-49
2023/07/02 04:20:28;;;;;;;5.80;5.20;;;23.60;60.20;;;;;;5067275;28;20254;-47
2023/07/02 04:22:54;;;;;;;4.63;4.23;;;23.60;60.00;;;;;;5064056;28;20227;-51
2023/07/02 04:25:20;;;;;;;9.80;4.30;;;23.60;60.00;;;;;;5066653;28;22412;-50
2023/07/02 04:27:46;;;;;;;6.80;5.00;;;23.40;58.90;;;;;;5068892;28;20468;-48
2023/07/02 04:30:13;;;;;;;8.77;6.10;;;23.00;59.50;;;;;;5089836;28;20518;-47
2023/07/02 04:32:39;;;;;;;7.97;4.93;;;22.90;59.90;;;;;;5073263;28;20195;-47
2023/07/02 04:35:06;;;;;;;7.93;5.23;;;22.80;59.80;;;;;;5065700;28;20440;-53
2023/07/02 04:37:32;;;;;;;10.17;5.37;;;22.70;59.40;;;;;;5063988;28;20446;-50
2023/07/02 04:39:57;;;;;;;12.43;6.13;;;22.60;59.70;;;;;;5065370;28;20908;-47
2023/07/02 04:42:27;;;;;;;10.53;6.00;;;22.60;59.80;;;;;;5083791;28;20715;-49
2023/07/02 04:44:54;;;;;;;7.80;5.90;;;22.50;60.10;;;;;;5075453;28;20214;-48
2023/07/02 04:47:20;;;;;;;8.33;5.30;;;22.40;60.20;;;;;;5084528;28;20814;-48
2023/07/02 04:49:46;;;;;;;8.93;5.30;;;22.60;60.70;;;;;;5065419;28;20439;-51
2023/07/02 04:52:11;;;;;;;7.33;5.17;;;22.60;60.30;;;;;;5068442;28;20448;-49
2023/07/02 04:54:37;;;;;;;7.50;4.67;;;22.70;60.10;;;;;;5079079;28;20262;-47
2023/07/02 04:57:03;;;;;;;4.93;3.80;;;22.70;60.10;;;;;;5075601;28;20766;-48
2023/07/02 04:59:28;;;;;;;8.30;5.70;;;22.80;60.20;;;;;;5070462;28;20211;-48
2023/07/02 05:01:54;;;;;;;6.13;4.20;;;22.90;59.70;;;;;;5057914;28;20448;-48
2023/07/02 05:04:20;;;;;;;6.07;3.63;;;22.80;59.80;;;;;;5067694;28;20278;-48
2023/07/02 05:06:45;;;;;;;4.37;3.70;;;22.80;60.30;;;;;;5058000;28;20200;-47
2023/07/02 05:09:11;;;;;;;7.97;4.80;;;22.90;60.30;;;;;;5061189;28;20225;-51
2023/07/02 05:11:36;;;;;;;6.47;4.17;;;23.10;59.10;;;;;;5063481;28;20206;-47
2023/07/02 05:14:02;;;;;;;4.37;3.73;;;23.10;59.40;;;;;;5065612;28;20820;-49
2023/07/02 05:16:27;;;;;;;5.43;3.53;;;23.20;59.10;;;;;;5058463;28;20824;-49
2023/07/02 05:18:53;;;;;;;3.77;3.43;;;23.30;58.70;;;;;;5061696;28;20274;-47
2023/07/02 05:21:19;;;;;;;4.33;3.93;;;23.40;58.60;;;;;;5061824;28;20225;-48
2023/07/02 05:23:45;;;;;;;5.00;4.50;;;23.60;58.00;;;;;;5061710;28;20268;-48
2023/07/02 05:26:11;;;;;;;5.30;4.80;;;23.70;57.50;;;;;;5062595;28;20442;-47
2023/07/02 05:28:36;;;;;;;9.07;4.67;;;23.80;57.20;;;;;;5065586;28;22743;-47
2023/07/02 05:31:02;;;;;;;12.63;4.30;;;23.70;57.40;;;;;;5076027;28;20278;-49
2023/07/02 05:33:27;;;;;;;5.90;3.90;;;23.60;57.40;;;;;;5065369;28;20202;-48
2023/07/02 05:35:53;;;;;;;11.80;4.70;;;23.50;57.00;;;;;;5073294;28;20630;-48
2023/07/02 05:38:19;;;;;;;8.03;4.20;;;23.20;57.40;;;;;;5063795;28;20198;-47
2023/07/02 05:40:45;;;;;;;4.33;3.93;;;23.20;57.60;;;;;;5065801;28;20191;-52
2023/07/02 05:43:11;;;;;;;9.30;4.50;;;23.10;57.80;;;;;;5059897;28;20489;-49
2023/07/02 05:45:37;;;;;;;5.20;3.90;;;23.10;58.00;;;;;;5057047;28;20529;-47
2023/07/02 05:48:03;;;;;;;5.63;3.30;;;22.90;58.20;;;;;;5065086;28;20195;-48
2023/07/02 05:50:28;;;;;;;5.63;3.93;;;22.70;58.50;;;;;;5061269;28;20192;-48
2023/07/02 05:52:54;;;;;;;6.43;4.50;;;22.90;58.60;;;;;;5060032;28;20454;-48
2023/07/02 05:55:20;;;;;;;5.40;3.90;;;22.90;58.30;;;;;;5074764;28;20296;-48
2023/07/02 05:57:46;;;;;;;5.30;4.47;;;23.00;58.20;;;;;;5079593;28;20559;-49
2023/07/02 06:00:12;;;;;;;8.77;4.80;;;23.10;58.10;;;;;;5069128;28;20184;-47
2023/07/02 06:02:38;;;;;;;6.60;4.67;;;22.90;57.80;;;;;;5066806;28;20184;-48
2023/07/02 06:05:04;;;;;;;6.53;4.77;;;22.80;58.10;;;;;;5059159;28;22271;-49
2023/07/02 06:07:29;;;;;;;5.60;4.70;;;22.70;57.40;;;;;;5064886;28;20279;-48
2023/07/02 06:09:55;;;;;;;4.53;3.70;;;22.60;57.90;;;;;;5059194;28;20861;-48
2023/07/02 06:12:21;;;;;;;5.47;4.23;;;22.70;57.90;;;;;;5079097;28;20204;-50
2023/07/02 06:14:47;;;;;;;9.43;4.80;;;22.50;58.10;;;;;;5072207;28;20265;-47
2023/07/02 06:17:13;;;;;;;9.27;5.50;;;22.70;58.30;;;;;;5067597;28;20489;-47
2023/07/02 06:19:39;;;;;;;7.60;5.60;;;22.70;57.20;;;;;;5074003;28;20425;-48
2023/07/02 06:22:04;;;;;;;7.30;4.70;;;22.60;57.10;;;;;;5071607;28;20241;-48
2023/07/02 06:24:30;;;;;;;6.70;5.57;;;22.70;56.70;;;;;;5077214;28;20261;-48
2023/07/02 06:26:56;;;;;;;7.27;5.40;;;22.60;57.20;;;;;;5062624;28;20223;-50
2023/07/02 06:29:23;;;;;;;6.23;5.10;;;22.70;57.50;;;;;;5061821;28;20771;-51
2023/07/02 06:31:49;;;;;;;8.60;6.17;;;22.70;57.40;;;;;;5068900;28;20561;-48
2023/07/02 06:34:15;;;;;;;9.77;5.63;;;22.90;57.20;;;;;;5056178;28;20434;-50
2023/07/02 06:36:41;;;;;;;9.97;6.97;;;22.90;57.40;;;;;;5062979;28;20494;-48
2023/07/02 06:39:06;;;;;;;11.30;6.03;;;22.90;56.40;;;;;;5061966;28;20193;-48
2023/07/02 06:41:32;;;;;;;8.57;5.87;;;22.80;56.20;;;;;;5077815;28;20297;-48
2023/07/02 06:43:57;;;;;;;9.00;5.93;;;22.90;57.00;;;;;;5080355;28;20259;-47
2023/07/02 06:46:23;;;;;;;9.10;7.27;;;23.00;56.50;;;;;;5064046;28;20206;-49
2023/07/02 06:48:49;;;;;;;10.90;6.60;;;23.00;56.50;;;;;;5066547;28;20187;-48
2023/07/02 06:51:14;;;;;;;10.73;6.93;;;23.10;56.60;;;;;;5073353;28;20654;-48
2023/07/02 06:53:41;;;;;;;10.67;7.03;;;23.20;55.90;;;;;;5071437;28;20203;-51
2023/07/02 06:56:10;;;;;;;10.47;6.90;;;23.20;55.50;;;;;;5077587;28;20239;-47
2023/07/02 06:58:36;;;;;;;9.70;7.17;;;23.30;56.00;;;;;;5080519;28;20459;-49
2023/07/02 07:01:01;;;;;;;9.90;7.40;;;23.60;55.50;;;;;;5065039;28;20438;-48
2023/07/02 07:03:27;;;;;;;13.10;8.00;;;23.50;53.80;;;;;;5064399;28;20201;-51
2023/07/02 07:05:53;;;;;;;10.43;7.77;;;23.40;53.70;;;;;;5079498;28;20300;-47
2023/07/02 07:08:18;;;;;;;9.27;7.20;;;23.50;53.90;;;;;;5070769;28;20554;-47
2023/07/02 07:10:45;;;;;;;10.67;7.63;;;23.30;53.80;;;;;;5079488;28;20199;-48
2023/07/02 07:13:13;;;;;;;11.53;7.80;;;23.10;53.30;;;;;;5070060;28;20241;-48
2023/07/02 07:15:39;;;;;;;11.83;7.63;;;22.90;54.00;;;;;;5066966;28;20494;-48
2023/07/02 07:18:04;;;;;;;11.07;8.10;;;22.80;53.70;;;;;;5073616;28;20941;-52
2023/07/02 07:20:30;;;;;;;11.00;7.73;;;23.00;54.00;;;;;;5072715;28;20223;-49
2023/07/02 07:22:56;;;;;;;9.60;7.37;;;23.30;54.50;;;;;;5074808;28;20198;-48
2023/07/02 07:25:22;;;;;;;9.50;8.00;;;23.50;54.20;;;;;;5066811;28;20196;-48
2023/07/02 07:27:48;;;;;;;13.03;8.73;;;23.50;52.50;;;;;;5080934;28;20806;-48
2023/07/02 07:30:14;;;;;;;12.57;7.73;;;23.40;52.60;;;;;;5073689;28;20434;-48
2023/07/02 07:32:41;;;;;;;12.77;8.90;;;23.20;52.80;;;;;;5081831;28;20213;-47
2023/07/02 07:35:07;;;;;;;11.83;8.70;;;23.20;53.40;;;;;;5075521;28;20198;-47
2023/07/02 07:37:33;;;;;;;14.43;9.00;;;23.20;52.80;;;;;;5081505;28;20445;-49
2023/07/02 07:39:58;;;;;;;12.20;9.10;;;23.50;53.60;;;;;;5077014;28;20445;-48
2023/07/02 07:42:24;;;;;;;12.53;8.30;;;23.20;52.00;;;;;;5062732;28;20276;-49
2023/07/02 07:44:50;;;;;;;15.40;10.47;;;23.30;52.70;;;;;;5072184;28;20188;-49
2023/07/02 07:47:15;;;;;;;13.10;9.50;;;23.30;52.10;;;;;;5072842;28;20582;-48
2023/07/02 07:49:41;;;;;;;15.57;10.10;;;23.40;52.90;;;;;;5072285;28;20711;-48
2023/07/02 07:52:07;;;;;;;14.37;10.07;;;23.40;51.90;;;;;;5071761;28;20202;-48
2023/07/02 07:54:35;;;;;;;15.20;9.67;;;23.30;51.40;;;;;;5069733;28;20299;-49
2023/07/02 07:57:01;;;;;;;16.83;10.03;;;23.50;52.30;;;;;;5072682;28;20219;-48
2023/07/02 07:59:26;;;;;;;13.77;11.30;;;23.80;52.00;;;;;;5072320;28;20445;-48
2023/07/02 08:01:52;;;;;;;15.83;11.07;;;23.90;51.30;;;;;;5072460;28;20621;-49
2023/07/02 08:04:17;;;;;;;17.30;10.10;;;23.80;51.20;;;;;;5070043;28;20267;-49
2023/07/02 08:06:43;;;;;;;19.53;11.90;;;24.00;51.60;;;;;;5072696;28;20195;-48
2023/07/02 08:09:09;;;;;;;16.37;12.70;;;23.90;49.80;;;;;;5075872;28;20219;-48
2023/07/02 08:11:35;;;;;;;20.80;12.77;;;23.80;49.20;;;;;;5074247;28;20245;-49
2023/07/02 08:14:00;;;;;;;19.13;12.70;;;23.70;49.40;;;;;;5072220;28;20438;-49
2023/07/02 08:16:26;;;;;;;14.57;11.43;;;23.70;49.30;;;;;;5074972;28;20225;-48
2023/07/02 08:18:51;;;;;;;14.33;10.30;;;23.80;49.40;;;;;;5068887;28;20192;-50
2023/07/02 08:21:17;;;;;;;16.73;11.60;;;24.00;49.50;;;;;;5080868;28;20188;-48
2023/07/02 08:23:46;;;;;;;20.00;11.47;;;24.10;48.80;;;;;;5066432;28;20208;-48
2023/07/02 08:26:12;;;;;;;15.80;11.20;;;24.30;49.50;;;;;;5083317;28;20567;-48
2023/07/02 08:28:40;;;;;;;17.43;11.50;;;24.50;48.60;;;;;;5082000;28;20453;-48
2023/07/02 08:31:06;;;;;;;17.13;11.77;;;24.60;48.20;;;;;;5088714;28;20746;-48
2023/07/02 08:33:31;;;;;;;18.87;12.10;;;24.70;48.30;;;;;;5073281;28;20439;-47
2023/07/02 08:35:57;;;;;;;15.70;11.73;;;24.70;47.30;;;;;;5069858;28;20590;-48
2023/07/02 08:38:23;;;;;;;14.47;12.13;;;24.80;48.30;;;;;;5077679;28;20184;-50
2023/07/02 08:40:52;;;;;;;18.03;13.63;;;24.70;47.40;;;;;;5077692;28;20307;-53
2023/07/02 08:43:18;;;;;;;16.03;12.20;;;24.50;47.10;;;;;;5082012;28;20476;-48
2023/07/02 08:45:44;;;;;;;16.63;12.53;;;24.50;46.70;;;;;;5066610;28;21084;-49
2023/07/02 08:48:11;;;;;;;18.53;12.37;;;24.60;47.40;;;;;;5060196;28;20195;-49
2023/07/02 08:50:36;;;;;;;19.97;12.60;;;24.80;46.80;;;;;;5074557;28;20907;-49
2023/07/02 08:53:02;;;;;;;20.10;12.70;;;25.20;47.10;;;;;;5070558;28;20530;-54
2023/07/02 08:55:29;;;;;;;14.33;12.40;;;25.20;45.90;;;;;;5061513;28;20306;-52
2023/07/02 08:57:59;;;;;;;17.40;13.00;;;25.30;46.10;;;;;;5072210;28;20204;-50
2023/07/02 09:00:26;;;;;;;15.27;11.93;;;25.60;45.90;;;;;;5072104;28;20452;-54
2023/07/02 09:02:52;;;;;;;16.50;11.03;;;25.60;43.50;;;;;;5066167;28;20541;-49
2023/07/02 09:05:18;;;;;;;15.20;11.93;;;25.20;42.90;;;;;;5060603;28;20518;-53
2023/07/02 09:07:48;;;;;;;14.93;11.90;;;24.90;43.80;;;;;;5066323;28;20238;-51
2023/07/02 09:10:30;;;;;;;15.23;11.40;;;25.00;44.30;;;;;;5071719;28;20595;-49
2023/07/02 09:13:06;;;;;;;19.37;12.20;;;25.10;43.90;;;;;;5068296;28;20869;-49
2023/07/02 09:15:37;;;;;;;15.70;10.30;;;25.30;43.10;;;;;;5077839;28;20555;-48
2023/07/02 09:18:02;;;;;;;14.97;10.77;;;25.60;43.00;;;;;;5078099;28;20463;-50
2023/07/02 09:20:34;;;;;;;16.93;11.90;;;25.90;43.20;;;;;;5066158;28;20926;-53
2023/07/02 09:23:00;;;;;;;12.43;10.40;;;26.10;41.80;;;;;;5071134;28;20320;-52
2023/07/02 09:25:38;;;;;;;12.37;10.20;;;25.90;41.00;;;;;;5075933;28;20996;-49
2023/07/02 09:28:21;;;;;;;13.90;11.43;;;25.50;40.30;;;;;;5057698;28;20442;-49
2023/07/02 09:30:51;;;;;;;19.30;11.33;;;25.70;40.90;;;;;;5062102;28;20464;-50
2023/07/02 09:33:17;;;;;;;16.30;11.77;;;26.20;41.50;;;;;;5075313;28;20941;-51
2023/07/02 09:35:43;;;;;;;15.03;11.90;;;26.60;42.40;;;;;;5075434;28;20648;-51
2023/07/02 09:38:10;;;;;;;18.53;11.00;;;26.90;40.90;;;;;;5062365;28;20443;-51
2023/07/02 09:40:44;;;;;;;19.37;12.00;;;26.90;40.00;;;;;;5073990;28;20548;-51
2023/07/02 09:43:11;;;;;;;14.50;11.83;;;27.10;40.40;;;;;;5057329;28;20465;-48
2023/07/02 09:45:36;;;;;;;13.53;11.03;;;27.20;40.50;;;;;;5070511;28;20444;-49
2023/07/02 09:48:04;;;;;;;14.23;10.63;;;27.30;40.20;;;;;;5072699;28;20447;-49
2023/07/02 09:50:30;;;;;;;12.40;10.43;;;27.30;39.60;;;;;;5075926;28;20538;-49
2023/07/02 09:52:55;;;;;;;15.30;10.93;;;27.40;39.30;;;;;;5067941;28;20445;-49
2023/07/02 09:55:21;;;;;;;15.33;11.10;;;27.50;39.00;;;;;;5065533;28;20474;-50
2023/07/02 09:57:47;;;;;;;13.83;10.50;;;27.80;39.40;;;;;;5081430;28;20274;-49
2023/07/02 10:00:14;;;;;;;13.93;10.90;;;27.80;38.70;;;;;;5068980;28;20851;-49
2023/07/02 10:02:40;;;;;;;12.73;11.00;;;27.80;38.70;;;;;;5074992;28;20206;-48
2023/07/02 10:05:06;;;;;;;15.60;11.23;;;27.70;38.80;;;;;;5077940;28;20827;-52
2023/07/02 10:07:33;;;;;;;19.30;11.70;;;27.70;39.00;;;;;;5070666;28;20360;-50
2023/07/02 10:09:59;;;;;;;16.10;11.10;;;27.50;38.50;;;;;;5070641;28;20562;-49
2023/07/02 10:12:27;;;;;;;18.43;13.17;;;27.50;38.60;;;;;;5076978;28;20438;-50
2023/07/02 10:14:55;;;;;;;17.90;12.23;;;27.80;39.00;;;;;;5066916;28;20199;-51
2023/07/02 10:17:30;;;;;;;13.50;11.00;;;27.90;38.40;;;;;;5078500;28;20535;-54
2023/07/02 10:19:57;;;;;;;13.60;11.57;;;28.30;38.40;;;;;;5083272;28;20526;-50
2023/07/02 10:22:23;;;;;;;14.27;11.50;;;28.60;37.10;;;;;;5078863;28;21107;-54
2023/07/02 10:24:57;;;;;;;17.90;12.93;;;28.70;37.10;;;;;;5072133;28;20452;-49
2023/07/02 10:27:42;;;;;;;13.30;11.30;;;28.80;36.80;;;;;;5074763;28;20196;-50
2023/07/02 10:30:09;;;;;;;17.47;12.93;;;28.80;37.10;;;;;;5079671;28;20445;-53
2023/07/02 10:32:37;;;;;;;19.00;12.43;;;28.90;37.00;;;;;;5072279;28;20548;-49
2023/07/02 10:35:15;;;;;;;17.53;13.33;;;28.90;37.10;;;;;;5065407;28;20798;-51
2023/07/02 10:37:40;;;;;;;16.17;13.00;;;29.00;36.70;;;;;;5079338;28;20959;-52
2023/07/02 10:40:07;;;;;;;15.50;11.90;;;29.30;37.20;;;;;;5074192;28;20434;-49
2023/07/02 10:42:36;;;;;;;17.80;12.87;;;29.40;36.70;;;;;;5073334;28;20612;-50
2023/07/02 10:45:02;;;;;;;13.83;12.10;;;29.50;35.90;;;;;;5077719;28;20587;-50
2023/07/02 10:47:29;;;;;;;14.43;11.53;;;29.80;35.90;;;;;;5081533;28;20535;-51
2023/07/02 10:49:54;;;;;;;16.73;13.00;;;29.90;35.40;;;;;;5078351;28;20202;-50
2023/07/02 10:52:20;;;;;;;15.77;12.87;;;29.80;34.60;;;;;;5083459;28;20430;-52
2023/07/02 10:54:47;;;;;;;14.23;11.87;;;29.70;34.90;;;;;;5085172;28;20255;-51
2023/07/02 10:57:21;;;;;;;15.20;12.13;;;29.70;34.90;;;;;;5076264;28;20850;-49
2023/07/02 10:59:48;;;;;;;24.83;12.07;;;29.60;35.40;;;;;;5073816;28;20529;-49
2023/07/02 11:02:14;;;;;;;15.07;12.57;;;29.80;34.60;;;;;;5075675;28;20762;-49
2023/07/02 11:04:39;;;;;;;15.63;13.10;;;29.80;35.00;;;;;;5083225;28;20418;-50
2023/07/02 11:07:05;;;;;;;17.70;12.40;;;30.10;34.00;;;;;;5074655;28;20563;-50
2023/07/02 11:09:31;;;;;;;15.30;13.67;;;30.40;34.70;;;;;;5071425;28;20191;-51
2023/07/02 11:12:00;;;;;;;13.70;11.70;;;30.20;33.60;;;;;;5081487;28;20195;-50
2023/07/02 11:14:33;;;;;;;17.83;13.20;;;30.30;34.70;;;;;;5072091;28;20814;-52
2023/07/02 11:17:03;;;;;;;15.63;11.90;;;30.20;33.50;;;;;;5080360;28;20858;-49
2023/07/02 11:19:28;;;;;;;16.40;12.33;;;29.90;33.20;;;;;;5069061;28;20449;-49
2023/07/02 11:21:56;;;;;;;14.37;12.60;;;29.90;33.30;;;;;;5073442;28;20952;-50
2023/07/02 11:24:40;;;;;;;16.10;14.07;;;30.10;33.60;;;;;;5074795;28;20213;-53
2023/07/02 11:27:06;;;;;;;14.60;12.33;;;30.20;34.00;;;;;;5061605;28;20515;-50
2023/07/02 11:29:33;;;;;;;16.57;12.37;;;29.60;34.00;;;;;;5068342;28;20914;-49
2023/07/02 11:32:09;;;;;;;14.20;12.70;;;29.40;34.90;;;;;;5080262;28;20461;-49
2023/07/02 11:34:36;;;;;;;17.60;13.07;;;29.40;34.70;;;;;;5070583;28;20480;-51
2023/07/02 11:37:02;;;;;;;14.90;12.30;;;29.10;34.60;;;;;;5083524;28;20472;-49
2023/07/02 11:39:27;;;;;;;15.90;11.87;;;29.00;35.20;;;;;;5073045;28;20485;-50
2023/07/02 11:41:53;;;;;;;15.10;12.50;;;29.10;35.30;;;;;;5077564;28;20471;-50
2023/07/02 11:44:19;;;;;;;16.33;11.50;;;29.00;35.50;;;;;;5073708;28;20653;-50
2023/07/02 11:46:46;;;;;;;14.33;11.90;;;29.00;34.50;;;;;;5072329;28;20549;-50
2023/07/02 11:49:12;;;;;;;15.50;12.80;;;29.20;34.40;;;;;;5071569;28;20202;-50
2023/07/02 11:51:39;;;;;;;17.40;14.20;;;29.10;33.90;;;;;;5065457;28;20778;-49
2023/07/02 11:54:05;;;;;;;17.50;13.70;;;29.20;33.90;;;;;;5062849;28;20786;-51
2023/07/02 11:56:31;;;;;;;13.77;12.33;;;29.20;33.80;;;;;;5072444;28;20987;-50
2023/07/02 11:58:56;;;;;;;14.00;12.10;;;29.10;34.00;;;;;;5072338;28;20438;-50
2023/07/02 12:01:22;;;;;;;18.93;13.23;;;29.10;34.50;;;;;;5072377;28;20207;-49
2023/07/02 12:03:48;;;;;;;15.17;12.20;;;28.90;35.70;;;;;;5062598;28;20196;-52
2023/07/02 12:06:13;;;;;;;16.50;13.30;;;29.00;36.00;;;;;;5069113;28;20548;-49
2023/07/02 12:08:39;;;;;;;16.70;12.27;;;29.10;35.20;;;;;;5074402;28;20194;-51
2023/07/02 12:11:05;;;;;;;14.37;12.50;;;29.10;34.40;;;;;;5067216;28;20196;-50
2023/07/02 12:13:30;;;;;;;14.60;12.47;;;29.30;34.60;;;;;;5071654;28;20203;-51
2023/07/02 12:15:56;;;;;;;14.03;12.20;;;29.50;34.20;;;;;;5071306;28;20231;-50
2023/07/02 12:18:21;;;;;;;15.20;12.17;;;29.60;33.60;;;;;;5072952;28;20226;-51
2023/07/02 12:20:48;;;;;;;17.43;13.47;;;29.70;32.50;;;;;;5076326;28;20766;-55
2023/07/02 12:23:14;;;;;;;13.70;12.20;;;29.50;33.00;;;;;;5079824;28;20207;-54
2023/07/02 12:25:39;;;;;;;14.80;13.20;;;29.60;34.30;;;;;;5073705;28;20446;-49
2023/07/02 12:28:05;;;;;;;15.60;12.77;;;29.70;34.90;;;;;;5079750;28;20556;-49
2023/07/02 12:30:31;;;;;;;14.73;13.10;;;29.80;34.60;;;;;;5067113;28;20663;-48
2023/07/02 12:32:57;;;;;;;15.53;13.40;;;30.00;34.30;;;;;;5067048;28;20211;-50
2023/07/02 12:35:22;;;;;;;15.03;12.63;;;30.00;33.60;;;;;;5069292;28;20456;-49